sensor_id;sensor_type;location;lat;lon;timestamp;P1;durP1;ratioP1;P2;durP2;ratioP2
36443;SDS011;24692;45.642;13.806;2022-10-30T00:00:26;9.97;;;3.53;;
36443;SDS011;24692;45.642;13.806;2022-10-30T00:02:52;6.37;;;3.07;;
36443;SDS011;24692;45.642;13.806;2022-10-30T00:05:18;5.97;;;3.03;;
36443;SDS011;24692;45.642;13.806;2022-10-30T00:07:45;6.87;;;3.43;;
36443;SDS011;24692;45.642;13.806;2022-10-30T00:10:11;4.73;;;2.83;;
36443;SDS011;24692;45.642;13.806;2022-10-30T00:12:37;6.60;;;3.20;;
36443;SDS011;24692;45.642;13.806;2022-10-30T00:15:03;6.67;;;3.13;;
36443;SDS011;24692;45.642;13.806;2022-10-30T00:17:29;6.87;;;3.03;;
36443;SDS011;24692;45.642;13.806;2022-10-30T00:19:55;4.93;;;2.90;;
36443;SDS011;24692;45.642;13.806;2022-10-30T00:22:21;5.13;;;2.70;;
36443;SDS011;24692;45.642;13.806;2022-10-30T00:24:47;5.03;;;2.73;;
36443;SDS011;24692;45.642;13.806;2022-10-30T00:27:13;5.50;;;2.90;;
36443;SDS011;24692;45.642;13.806;2022-10-30T00:29:38;8.27;;;3.40;;
36443;SDS011;24692;45.642;13.806;2022-10-30T00:32:04;6.40;;;2.97;;
36443;SDS011;24692;45.642;13.806;2022-10-30T00:34:30;7.90;;;3.30;;
36443;SDS011;24692;45.642;13.806;2022-10-30T00:36:55;7.97;;;3.03;;
36443;SDS011;24692;45.642;13.806;2022-10-30T00:39:21;9.33;;;3.00;;
36443;SDS011;24692;45.642;13.806;2022-10-30T00:41:47;6.10;;;2.67;;
36443;SDS011;24692;45.642;13.806;2022-10-30T00:46:57;5.17;;;2.90;;
36443;SDS011;24692;45.642;13.806;2022-10-30T00:49:28;4.63;;;2.83;;
36443;SDS011;24692;45.642;13.806;2022-10-30T00:51:57;9.07;;;3.33;;
36443;SDS011;24692;45.642;13.806;2022-10-30T00:54:25;5.63;;;2.80;;
36443;SDS011;24692;45.642;13.806;2022-10-30T00:56:50;7.87;;;3.00;;
36443;SDS011;24692;45.642;13.806;2022-10-30T00:59:20;4.00;;;2.63;;
36443;SDS011;24692;45.642;13.806;2022-10-30T01:01:50;3.67;;;2.50;;
36443;SDS011;24692;45.642;13.806;2022-10-30T01:04:17;8.27;;;2.70;;
36443;SDS011;24692;45.642;13.806;2022-10-30T01:06:45;7.33;;;3.00;;
36443;SDS011;24692;45.642;13.806;2022-10-30T01:09:12;6.03;;;2.40;;
36443;SDS011;24692;45.642;13.806;2022-10-30T01:11:39;5.90;;;2.97;;
36443;SDS011;24692;45.642;13.806;2022-10-30T01:14:05;4.03;;;2.70;;
36443;SDS011;24692;45.642;13.806;2022-10-30T01:16:38;5.13;;;2.87;;
36443;SDS011;24692;45.642;13.806;2022-10-30T01:37:54;6.43;;;2.70;;
36443;SDS011;24692;45.642;13.806;2022-10-30T01:40:27;3.23;;;2.37;;
36443;SDS011;24692;45.642;13.806;2022-10-30T01:42:56;5.00;;;2.63;;
36443;SDS011;24692;45.642;13.806;2022-10-30T01:45:24;7.13;;;2.60;;
36443;SDS011;24692;45.642;13.806;2022-10-30T01:51:10;6.77;;;2.27;;
36443;SDS011;24692;45.642;13.806;2022-10-30T01:56:36;6.93;;;2.20;;
36443;SDS011;24692;45.642;13.806;2022-10-30T01:59:14;9.00;;;2.63;;
36443;SDS011;24692;45.642;13.806;2022-10-30T02:01:47;4.47;;;2.43;;
36443;SDS011;24692;45.642;13.806;2022-10-30T02:04:13;5.20;;;2.20;;
36443;SDS011;24692;45.642;13.806;2022-10-30T02:06:40;4.43;;;2.43;;
36443;SDS011;24692;45.642;13.806;2022-10-30T02:09:06;5.73;;;2.80;;
36443;SDS011;24692;45.642;13.806;2022-10-30T02:11:32;6.33;;;2.30;;
36443;SDS011;24692;45.642;13.806;2022-10-30T02:13:59;4.50;;;2.47;;
36443;SDS011;24692;45.642;13.806;2022-10-30T02:16:28;5.10;;;2.40;;
36443;SDS011;24692;45.642;13.806;2022-10-30T02:18:54;7.13;;;2.33;;
36443;SDS011;24692;45.642;13.806;2022-10-30T02:21:20;3.90;;;2.27;;
36443;SDS011;24692;45.642;13.806;2022-10-30T02:23:46;4.10;;;2.30;;
36443;SDS011;24692;45.642;13.806;2022-10-30T02:26:11;4.67;;;2.50;;
36443;SDS011;24692;45.642;13.806;2022-10-30T02:28:37;7.23;;;2.67;;
36443;SDS011;24692;45.642;13.806;2022-10-30T02:31:02;4.03;;;2.30;;
36443;SDS011;24692;45.642;13.806;2022-10-30T02:33:28;6.33;;;2.17;;
36443;SDS011;24692;45.642;13.806;2022-10-30T02:35:54;4.53;;;2.33;;
36443;SDS011;24692;45.642;13.806;2022-10-30T02:38:19;5.43;;;2.00;;
36443;SDS011;24692;45.642;13.806;2022-10-30T02:40:45;4.23;;;2.33;;
36443;SDS011;24692;45.642;13.806;2022-10-30T02:43:11;3.93;;;2.30;;
36443;SDS011;24692;45.642;13.806;2022-10-30T02:45:36;5.07;;;2.33;;
36443;SDS011;24692;45.642;13.806;2022-10-30T02:48:02;5.63;;;2.47;;
36443;SDS011;24692;45.642;13.806;2022-10-30T02:50:28;4.43;;;2.17;;
36443;SDS011;24692;45.642;13.806;2022-10-30T02:52:53;4.27;;;2.30;;
36443;SDS011;24692;45.642;13.806;2022-10-30T02:55:19;4.07;;;2.00;;
36443;SDS011;24692;45.642;13.806;2022-10-30T02:57:44;7.40;;;2.83;;
36443;SDS011;24692;45.642;13.806;2022-10-30T03:00:10;6.47;;;2.50;;
36443;SDS011;24692;45.642;13.806;2022-10-30T03:02:37;4.57;;;2.30;;
36443;SDS011;24692;45.642;13.806;2022-10-30T03:05:03;4.33;;;2.17;;
36443;SDS011;24692;45.642;13.806;2022-10-30T03:07:29;4.97;;;2.00;;
36443;SDS011;24692;45.642;13.806;2022-10-30T03:09:54;4.43;;;2.30;;
36443;SDS011;24692;45.642;13.806;2022-10-30T03:12:20;6.70;;;2.30;;
36443;SDS011;24692;45.642;13.806;2022-10-30T03:14:46;6.83;;;2.60;;
36443;SDS011;24692;45.642;13.806;2022-10-30T03:17:12;7.13;;;2.80;;
36443;SDS011;24692;45.642;13.806;2022-10-30T03:19:38;9.27;;;3.50;;
36443;SDS011;24692;45.642;13.806;2022-10-30T03:22:05;8.30;;;3.07;;
36443;SDS011;24692;45.642;13.806;2022-10-30T03:24:30;5.70;;;2.83;;
36443;SDS011;24692;45.642;13.806;2022-10-30T03:26:56;9.30;;;3.50;;
36443;SDS011;24692;45.642;13.806;2022-10-30T03:29:22;6.60;;;3.60;;
36443;SDS011;24692;45.642;13.806;2022-10-30T03:31:47;8.60;;;3.37;;
36443;SDS011;24692;45.642;13.806;2022-10-30T03:34:13;9.43;;;3.83;;
36443;SDS011;24692;45.642;13.806;2022-10-30T03:36:39;11.17;;;4.03;;
36443;SDS011;24692;45.642;13.806;2022-10-30T03:39:04;7.97;;;4.00;;
36443;SDS011;24692;45.642;13.806;2022-10-30T03:41:30;8.27;;;3.67;;
36443;SDS011;24692;45.642;13.806;2022-10-30T03:43:56;8.33;;;3.80;;
36443;SDS011;24692;45.642;13.806;2022-10-30T03:46:21;9.13;;;4.73;;
36443;SDS011;24692;45.642;13.806;2022-10-30T03:48:47;10.27;;;5.27;;
36443;SDS011;24692;45.642;13.806;2022-10-30T03:51:14;8.33;;;4.60;;
36443;SDS011;24692;45.642;13.806;2022-10-30T03:53:40;9.27;;;5.00;;
36443;SDS011;24692;45.642;13.806;2022-10-30T03:56:05;7.80;;;4.47;;
36443;SDS011;24692;45.642;13.806;2022-10-30T03:58:31;6.93;;;3.07;;
36443;SDS011;24692;45.642;13.806;2022-10-30T04:01:01;5.97;;;2.90;;
36443;SDS011;24692;45.642;13.806;2022-10-30T04:03:30;6.67;;;2.30;;
36443;SDS011;24692;45.642;13.806;2022-10-30T04:05:56;4.00;;;2.30;;
36443;SDS011;24692;45.642;13.806;2022-10-30T04:08:22;5.17;;;2.33;;
36443;SDS011;24692;45.642;13.806;2022-10-30T04:10:48;3.47;;;2.50;;
36443;SDS011;24692;45.642;13.806;2022-10-30T04:13:14;5.80;;;2.50;;
36443;SDS011;24692;45.642;13.806;2022-10-30T04:15:41;3.83;;;2.70;;
36443;SDS011;24692;45.642;13.806;2022-10-30T04:18:11;4.90;;;2.90;;
36443;SDS011;24692;45.642;13.806;2022-10-30T04:20:37;6.23;;;3.10;;
36443;SDS011;24692;45.642;13.806;2022-10-30T04:23:04;6.90;;;2.80;;
36443;SDS011;24692;45.642;13.806;2022-10-30T04:25:34;5.90;;;2.90;;
36443;SDS011;24692;45.642;13.806;2022-10-30T04:28:00;4.50;;;2.80;;
36443;SDS011;24692;45.642;13.806;2022-10-30T04:30:26;3.13;;;1.80;;
36443;SDS011;24692;45.642;13.806;2022-10-30T04:32:55;5.17;;;2.13;;
36443;SDS011;24692;45.642;13.806;2022-10-30T04:35:26;2.97;;;1.90;;
36443;SDS011;24692;45.642;13.806;2022-10-30T04:37:57;4.03;;;2.10;;
36443;SDS011;24692;45.642;13.806;2022-10-30T04:40:25;6.07;;;2.13;;
36443;SDS011;24692;45.642;13.806;2022-10-30T04:42:52;10.10;;;2.17;;
36443;SDS011;24692;45.642;13.806;2022-10-30T04:45:18;5.07;;;2.27;;
36443;SDS011;24692;45.642;13.806;2022-10-30T04:47:44;6.40;;;2.90;;
36443;SDS011;24692;45.642;13.806;2022-10-30T04:50:10;5.43;;;3.23;;
36443;SDS011;24692;45.642;13.806;2022-10-30T04:52:36;9.47;;;4.53;;
36443;SDS011;24692;45.642;13.806;2022-10-30T04:55:02;7.23;;;3.30;;
36443;SDS011;24692;45.642;13.806;2022-10-30T04:57:28;6.50;;;3.03;;
36443;SDS011;24692;45.642;13.806;2022-10-30T04:59:55;4.73;;;2.47;;
36443;SDS011;24692;45.642;13.806;2022-10-30T05:02:21;4.00;;;2.60;;
36443;SDS011;24692;45.642;13.806;2022-10-30T05:04:47;4.50;;;2.10;;
36443;SDS011;24692;45.642;13.806;2022-10-30T05:07:13;4.50;;;1.77;;
36443;SDS011;24692;45.642;13.806;2022-10-30T05:09:39;6.87;;;1.87;;
36443;SDS011;24692;45.642;13.806;2022-10-30T05:12:05;6.77;;;2.13;;
36443;SDS011;24692;45.642;13.806;2022-10-30T05:14:31;3.50;;;1.60;;
36443;SDS011;24692;45.642;13.806;2022-10-30T05:16:57;5.80;;;1.93;;
36443;SDS011;24692;45.642;13.806;2022-10-30T05:19:23;4.50;;;1.83;;
36443;SDS011;24692;45.642;13.806;2022-10-30T05:21:49;3.83;;;1.80;;
36443;SDS011;24692;45.642;13.806;2022-10-30T05:24:15;5.93;;;1.90;;
36443;SDS011;24692;45.642;13.806;2022-10-30T05:26:41;8.17;;;2.40;;
36443;SDS011;24692;45.642;13.806;2022-10-30T05:29:07;4.03;;;1.90;;
36443;SDS011;24692;45.642;13.806;2022-10-30T05:31:33;6.03;;;1.90;;
36443;SDS011;24692;45.642;13.806;2022-10-30T05:33:58;5.93;;;2.10;;
36443;SDS011;24692;45.642;13.806;2022-10-30T05:36:24;4.13;;;1.97;;
36443;SDS011;24692;45.642;13.806;2022-10-30T05:38:50;5.63;;;2.00;;
36443;SDS011;24692;45.642;13.806;2022-10-30T05:41:16;4.93;;;2.00;;
36443;SDS011;24692;45.642;13.806;2022-10-30T05:43:41;5.87;;;1.90;;
36443;SDS011;24692;45.642;13.806;2022-10-30T05:46:07;3.30;;;1.80;;
36443;SDS011;24692;45.642;13.806;2022-10-30T05:48:33;4.33;;;1.93;;
36443;SDS011;24692;45.642;13.806;2022-10-30T05:50:58;7.57;;;1.80;;
36443;SDS011;24692;45.642;13.806;2022-10-30T05:53:24;5.03;;;1.80;;
36443;SDS011;24692;45.642;13.806;2022-10-30T05:55:50;4.70;;;1.83;;
36443;SDS011;24692;45.642;13.806;2022-10-30T05:58:15;4.73;;;1.60;;
36443;SDS011;24692;45.642;13.806;2022-10-30T06:00:41;2.67;;;1.63;;
36443;SDS011;24692;45.642;13.806;2022-10-30T06:03:11;6.23;;;2.00;;
36443;SDS011;24692;45.642;13.806;2022-10-30T06:05:38;5.97;;;1.80;;
36443;SDS011;24692;45.642;13.806;2022-10-30T06:08:04;5.63;;;1.80;;
36443;SDS011;24692;45.642;13.806;2022-10-30T06:10:31;4.73;;;1.60;;
36443;SDS011;24692;45.642;13.806;2022-10-30T06:12:58;4.63;;;1.70;;
36443;SDS011;24692;45.642;13.806;2022-10-30T06:15:25;3.80;;;2.00;;
36443;SDS011;24692;45.642;13.806;2022-10-30T06:17:52;4.50;;;2.00;;
36443;SDS011;24692;45.642;13.806;2022-10-30T06:20:18;3.83;;;2.00;;
36443;SDS011;24692;45.642;13.806;2022-10-30T06:25:21;9.17;;;1.97;;
36443;SDS011;24692;45.642;13.806;2022-10-30T06:27:46;4.90;;;2.00;;
36443;SDS011;24692;45.642;13.806;2022-10-30T06:30:12;5.70;;;1.70;;
36443;SDS011;24692;45.642;13.806;2022-10-30T06:32:38;5.03;;;1.65;;
36443;SDS011;24692;45.642;13.806;2022-10-30T06:35:03;4.10;;;1.87;;
36443;SDS011;24692;45.642;13.806;2022-10-30T06:37:29;7.13;;;1.90;;
36443;SDS011;24692;45.642;13.806;2022-10-30T06:39:55;3.88;;;1.42;;
36443;SDS011;24692;45.642;13.806;2022-10-30T06:42:20;6.40;;;1.85;;
36443;SDS011;24692;45.642;13.806;2022-10-30T06:44:46;4.07;;;1.42;;
36443;SDS011;24692;45.642;13.806;2022-10-30T06:47:13;4.45;;;2.05;;
36443;SDS011;24692;45.642;13.806;2022-10-30T06:49:39;5.03;;;2.00;;
36443;SDS011;24692;45.642;13.806;2022-10-30T06:52:04;6.25;;;2.10;;
36443;SDS011;24692;45.642;13.806;2022-10-30T06:54:30;4.32;;;1.90;;
36443;SDS011;24692;45.642;13.806;2022-10-30T06:56:56;6.07;;;2.00;;
36443;SDS011;24692;45.642;13.806;2022-10-30T06:59:22;3.90;;;1.70;;
36443;SDS011;24692;45.642;13.806;2022-10-30T07:01:47;5.20;;;1.63;;
36443;SDS011;24692;45.642;13.806;2022-10-30T07:04:13;3.15;;;1.80;;
36443;SDS011;24692;45.642;13.806;2022-10-30T07:06:39;3.47;;;2.05;;
36443;SDS011;24692;45.642;13.806;2022-10-30T07:09:04;5.30;;;1.73;;
36443;SDS011;24692;45.642;13.806;2022-10-30T07:11:30;3.55;;;1.63;;
36443;SDS011;24692;45.642;13.806;2022-10-30T07:13:55;3.30;;;1.65;;
36443;SDS011;24692;45.642;13.806;2022-10-30T07:16:21;3.63;;;1.63;;
36443;SDS011;24692;45.642;13.806;2022-10-30T07:18:47;4.45;;;1.60;;
36443;SDS011;24692;45.642;13.806;2022-10-30T07:21:12;6.05;;;1.80;;
36443;SDS011;24692;45.642;13.806;2022-10-30T07:23:38;6.43;;;1.77;;
36443;SDS011;24692;45.642;13.806;2022-10-30T07:26:03;3.95;;;1.80;;
36443;SDS011;24692;45.642;13.806;2022-10-30T07:28:29;4.10;;;1.80;;
36443;SDS011;24692;45.642;13.806;2022-10-30T07:30:56;5.10;;;1.80;;
36443;SDS011;24692;45.642;13.806;2022-10-30T07:33:23;4.05;;;1.95;;
36443;SDS011;24692;45.642;13.806;2022-10-30T07:35:48;4.90;;;1.95;;
36443;SDS011;24692;45.642;13.806;2022-10-30T07:38:14;6.80;;;2.10;;
36443;SDS011;24692;45.642;13.806;2022-10-30T07:40:41;4.03;;;1.98;;
36443;SDS011;24692;45.642;13.806;2022-10-30T07:43:07;5.82;;;2.10;;
36443;SDS011;24692;45.642;13.806;2022-10-30T07:45:37;7.90;;;2.00;;
36443;SDS011;24692;45.642;13.806;2022-10-30T07:48:03;5.75;;;2.13;;
36443;SDS011;24692;45.642;13.806;2022-10-30T07:50:29;4.30;;;1.95;;
36443;SDS011;24692;45.642;13.806;2022-10-30T07:52:55;3.75;;;1.90;;
36443;SDS011;24692;45.642;13.806;2022-10-30T07:55:20;6.18;;;2.13;;
36443;SDS011;24692;45.642;13.806;2022-10-30T07:57:46;7.65;;;2.25;;
36443;SDS011;24692;45.642;13.806;2022-10-30T08:00:12;5.32;;;2.03;;
36443;SDS011;24692;45.642;13.806;2022-10-30T08:02:39;3.20;;;2.08;;
36443;SDS011;24692;45.642;13.806;2022-10-30T08:05:05;4.93;;;2.20;;
36443;SDS011;24692;45.642;13.806;2022-10-30T08:07:32;5.20;;;1.85;;
36443;SDS011;24692;45.642;13.806;2022-10-30T08:09:59;5.05;;;1.77;;
36443;SDS011;24692;45.642;13.806;2022-10-30T08:12:25;6.85;;;2.10;;
36443;SDS011;24692;45.642;13.806;2022-10-30T08:14:52;9.80;;;2.65;;
36443;SDS011;24692;45.642;13.806;2022-10-30T08:17:19;8.23;;;2.30;;
36443;SDS011;24692;45.642;13.806;2022-10-30T08:19:45;7.20;;;2.60;;
36443;SDS011;24692;45.642;13.806;2022-10-30T08:22:11;5.80;;;2.60;;
36443;SDS011;24692;45.642;13.806;2022-10-30T08:24:37;5.82;;;2.58;;
36443;SDS011;24692;45.642;13.806;2022-10-30T08:27:03;6.15;;;2.95;;
36443;SDS011;24692;45.642;13.806;2022-10-30T08:29:29;8.07;;;3.60;;
36443;SDS011;24692;45.642;13.806;2022-10-30T08:31:55;8.73;;;3.90;;
36443;SDS011;24692;45.642;13.806;2022-10-30T08:34:21;5.70;;;3.90;;
36443;SDS011;24692;45.642;13.806;2022-10-30T08:36:50;6.78;;;3.65;;
36443;SDS011;24692;45.642;13.806;2022-10-30T08:39:16;10.35;;;4.13;;
36443;SDS011;24692;45.642;13.806;2022-10-30T08:41:42;6.07;;;4.07;;
36443;SDS011;24692;45.642;13.806;2022-10-30T08:44:08;7.50;;;4.05;;
36443;SDS011;24692;45.642;13.806;2022-10-30T08:46:34;8.15;;;3.90;;
36443;SDS011;24692;45.642;13.806;2022-10-30T08:49:00;7.47;;;3.67;;
36443;SDS011;24692;45.642;13.806;2022-10-30T08:51:26;5.72;;;3.83;;
36443;SDS011;24692;45.642;13.806;2022-10-30T08:53:51;6.03;;;3.88;;
36443;SDS011;24692;45.642;13.806;2022-10-30T08:56:17;7.30;;;3.80;;
36443;SDS011;24692;45.642;13.806;2022-10-30T08:58:43;5.57;;;3.45;;
36443;SDS011;24692;45.642;13.806;2022-10-30T09:01:09;6.28;;;3.50;;
36443;SDS011;24692;45.642;13.806;2022-10-30T09:03:34;5.68;;;3.50;;
36443;SDS011;24692;45.642;13.806;2022-10-30T09:06:00;8.05;;;3.67;;
36443;SDS011;24692;45.642;13.806;2022-10-30T09:08:26;10.90;;;3.67;;
36443;SDS011;24692;45.642;13.806;2022-10-30T09:10:53;7.03;;;3.60;;
36443;SDS011;24692;45.642;13.806;2022-10-30T09:13:19;5.85;;;3.20;;
36443;SDS011;24692;45.642;13.806;2022-10-30T09:15:45;5.63;;;3.20;;
36443;SDS011;24692;45.642;13.806;2022-10-30T09:18:11;5.28;;;3.15;;
36443;SDS011;24692;45.642;13.806;2022-10-30T09:20:36;4.10;;;2.80;;
36443;SDS011;24692;45.642;13.806;2022-10-30T09:23:02;3.75;;;2.58;;
36443;SDS011;24692;45.642;13.806;2022-10-30T09:25:28;2.72;;;2.20;;
36443;SDS011;24692;45.642;13.806;2022-10-30T09:27:54;4.13;;;2.72;;
36443;SDS011;24692;45.642;13.806;2022-10-30T09:30:20;7.03;;;3.05;;
36443;SDS011;24692;45.642;13.806;2022-10-30T09:32:52;8.32;;;3.33;;
36443;SDS011;24692;45.642;13.806;2022-10-30T09:35:19;5.57;;;2.92;;
36443;SDS011;24692;45.642;13.806;2022-10-30T09:37:45;5.00;;;2.72;;
36443;SDS011;24692;45.642;13.806;2022-10-30T09:40:16;6.35;;;2.53;;
36443;SDS011;24692;45.642;13.806;2022-10-30T09:42:53;8.20;;;2.50;;
36443;SDS011;24692;45.642;13.806;2022-10-30T09:51:08;4.60;;;2.80;;
36443;SDS011;24692;45.642;13.806;2022-10-30T09:56:42;8.85;;;2.97;;
36443;SDS011;24692;45.642;13.806;2022-10-30T10:02:03;7.10;;;3.40;;
36443;SDS011;24692;45.642;13.806;2022-10-30T10:04:48;6.93;;;2.75;;
36443;SDS011;24692;45.642;13.806;2022-10-30T10:07:22;5.43;;;3.30;;
36443;SDS011;24692;45.642;13.806;2022-10-30T10:09:56;6.25;;;3.25;;
36443;SDS011;24692;45.642;13.806;2022-10-30T10:15:46;8.52;;;3.65;;
36443;SDS011;24692;45.642;13.806;2022-10-30T10:18:18;7.15;;;3.28;;
36443;SDS011;24692;45.642;13.806;2022-10-30T10:21:00;7.15;;;4.07;;
36443;SDS011;24692;45.642;13.806;2022-10-30T10:23:34;7.63;;;4.43;;
36443;SDS011;24692;45.642;13.806;2022-10-30T10:34:32;9.15;;;5.13;;
36443;SDS011;24692;45.642;13.806;2022-10-30T10:47:43;8.98;;;5.18;;
36443;SDS011;24692;45.642;13.806;2022-10-30T10:50:40;10.02;;;5.30;;
36443;SDS011;24692;45.642;13.806;2022-10-30T10:55:46;7.97;;;5.20;;
36443;SDS011;24692;45.642;13.806;2022-10-30T11:01:12;14.60;;;5.40;;
36443;SDS011;24692;45.642;13.806;2022-10-30T11:03:56;7.65;;;5.03;;
36443;SDS011;24692;45.642;13.806;2022-10-30T11:06:26;7.45;;;5.40;;
36443;SDS011;24692;45.642;13.806;2022-10-30T11:09:21;8.63;;;5.28;;
36443;SDS011;24692;45.642;13.806;2022-10-30T11:11:53;11.77;;;5.60;;
36443;SDS011;24692;45.642;13.806;2022-10-30T11:14:24;9.98;;;5.45;;
36443;SDS011;24692;45.642;13.806;2022-10-30T11:19:37;13.05;;;5.30;;
36443;SDS011;24692;45.642;13.806;2022-10-30T11:22:03;8.73;;;5.18;;
36443;SDS011;24692;45.642;13.806;2022-10-30T11:24:42;11.23;;;4.70;;
36443;SDS011;24692;45.642;13.806;2022-10-30T11:29:55;7.75;;;4.72;;
36443;SDS011;24692;45.642;13.806;2022-10-30T11:32:27;9.00;;;4.90;;
36443;SDS011;24692;45.642;13.806;2022-10-30T11:37:32;8.75;;;5.30;;
36443;SDS011;24692;45.642;13.806;2022-10-30T11:42:58;9.77;;;5.95;;
36443;SDS011;24692;45.642;13.806;2022-10-30T11:47:57;11.00;;;5.95;;
36443;SDS011;24692;45.642;13.806;2022-10-30T11:50:25;7.30;;;5.75;;
36443;SDS011;24692;45.642;13.806;2022-10-30T11:52:54;8.27;;;5.32;;
36443;SDS011;24692;45.642;13.806;2022-10-30T11:55:45;10.15;;;5.30;;
36443;SDS011;24692;45.642;13.806;2022-10-30T12:01:05;9.50;;;5.30;;
36443;SDS011;24692;45.642;13.806;2022-10-30T12:03:39;8.63;;;5.53;;
36443;SDS011;24692;45.642;13.806;2022-10-30T12:06:19;11.52;;;5.30;;
36443;SDS011;24692;45.642;13.806;2022-10-30T12:11:34;8.73;;;5.32;;
36443;SDS011;24692;45.642;13.806;2022-10-30T12:14:01;8.50;;;6.13;;
36443;SDS011;24692;45.642;13.806;2022-10-30T12:16:28;11.18;;;6.03;;
36443;SDS011;24692;45.642;13.806;2022-10-30T12:21:22;11.85;;;6.60;;
36443;SDS011;24692;45.642;13.806;2022-10-30T12:23:50;14.27;;;6.20;;
36443;SDS011;24692;45.642;13.806;2022-10-30T12:26:23;10.40;;;6.18;;
36443;SDS011;24692;45.642;13.806;2022-10-30T12:28:54;11.80;;;6.40;;
36443;SDS011;24692;45.642;13.806;2022-10-30T12:31:34;8.23;;;5.45;;
36443;SDS011;24692;45.642;13.806;2022-10-30T12:34:11;8.77;;;6.22;;
36443;SDS011;24692;45.642;13.806;2022-10-30T12:37:12;12.85;;;6.32;;
36443;SDS011;24692;45.642;13.806;2022-10-30T12:42:15;13.27;;;6.75;;
36443;SDS011;24692;45.642;13.806;2022-10-30T12:44:43;10.13;;;6.45;;
36443;SDS011;24692;45.642;13.806;2022-10-30T12:50:02;9.82;;;7.00;;
36443;SDS011;24692;45.642;13.806;2022-10-30T12:55:38;12.60;;;6.50;;
36443;SDS011;24692;45.642;13.806;2022-10-30T12:58:12;12.32;;;6.72;;
36443;SDS011;24692;45.642;13.806;2022-10-30T13:01:06;12.52;;;7.05;;
36443;SDS011;24692;45.642;13.806;2022-10-30T13:03:42;14.13;;;6.93;;
36443;SDS011;24692;45.642;13.806;2022-10-30T13:06:19;14.30;;;6.88;;
36443;SDS011;24692;45.642;13.806;2022-10-30T13:14:02;13.13;;;6.63;;
36443;SDS011;24692;45.642;13.806;2022-10-30T13:16:35;10.77;;;7.30;;
36443;SDS011;24692;45.642;13.806;2022-10-30T13:19:00;12.15;;;7.15;;
36443;SDS011;24692;45.642;13.806;2022-10-30T13:32:39;13.73;;;7.70;;
36443;SDS011;24692;45.642;13.806;2022-10-30T13:38:20;11.88;;;6.93;;
36443;SDS011;24692;45.642;13.806;2022-10-30T13:40:50;10.13;;;6.53;;
36443;SDS011;24692;45.642;13.806;2022-10-30T13:43:27;16.67;;;7.35;;
36443;SDS011;24692;45.642;13.806;2022-10-30T13:51:24;15.32;;;6.70;;
36443;SDS011;24692;45.642;13.806;2022-10-30T13:54:12;10.77;;;6.88;;
36443;SDS011;24692;45.642;13.806;2022-10-30T13:56:39;13.55;;;6.50;;
36443;SDS011;24692;45.642;13.806;2022-10-30T13:59:14;12.25;;;6.93;;
36443;SDS011;24692;45.642;13.806;2022-10-30T14:04:40;8.63;;;5.95;;
36443;SDS011;24692;45.642;13.806;2022-10-30T14:09:58;8.82;;;5.90;;
36443;SDS011;24692;45.642;13.806;2022-10-30T14:12:51;10.57;;;6.05;;
36443;SDS011;24692;45.642;13.806;2022-10-30T14:15:43;10.20;;;6.20;;
36443;SDS011;24692;45.642;13.806;2022-10-30T14:20:38;11.95;;;6.25;;
36443;SDS011;24692;45.642;13.806;2022-10-30T14:23:13;9.48;;;6.35;;
36443;SDS011;24692;45.642;13.806;2022-10-30T14:26:12;10.25;;;6.40;;
36443;SDS011;24692;45.642;13.806;2022-10-30T14:28:40;13.05;;;6.88;;
36443;SDS011;24692;45.642;13.806;2022-10-30T14:33:53;11.73;;;7.30;;
36443;SDS011;24692;45.642;13.806;2022-10-30T14:38:58;11.70;;;6.57;;
36443;SDS011;24692;45.642;13.806;2022-10-30T14:47:20;12.93;;;6.63;;
36443;SDS011;24692;45.642;13.806;2022-10-30T14:51:01;11.50;;;6.18;;
36443;SDS011;24692;45.642;13.806;2022-10-30T14:58:39;8.88;;;5.75;;
36443;SDS011;24692;45.642;13.806;2022-10-30T15:06:17;11.90;;;5.90;;
36443;SDS011;24692;45.642;13.806;2022-10-30T15:14:25;9.40;;;5.15;;
36443;SDS011;24692;45.642;13.806;2022-10-30T15:16:58;12.43;;;6.05;;
36443;SDS011;24692;45.642;13.806;2022-10-30T15:19:24;10.93;;;5.70;;
36443;SDS011;24692;45.642;13.806;2022-10-30T15:21:52;14.68;;;6.38;;
36443;SDS011;24692;45.642;13.806;2022-10-30T15:24:21;9.02;;;5.68;;
36443;SDS011;24692;45.642;13.806;2022-10-30T15:26:49;7.43;;;6.07;;
36443;SDS011;24692;45.642;13.806;2022-10-30T15:29:21;11.93;;;6.18;;
36443;SDS011;24692;45.642;13.806;2022-10-30T15:31:56;9.35;;;5.78;;
36443;SDS011;24692;45.642;13.806;2022-10-30T15:34:26;10.20;;;5.90;;
36443;SDS011;24692;45.642;13.806;2022-10-30T15:36:54;10.85;;;5.88;;
36443;SDS011;24692;45.642;13.806;2022-10-30T15:39:20;11.82;;;5.88;;
36443;SDS011;24692;45.642;13.806;2022-10-30T15:41:47;11.35;;;6.20;;
36443;SDS011;24692;45.642;13.806;2022-10-30T15:44:23;9.57;;;5.73;;
36443;SDS011;24692;45.642;13.806;2022-10-30T15:46:52;9.63;;;6.10;;
36443;SDS011;24692;45.642;13.806;2022-10-30T15:49:31;17.20;;;6.90;;
36443;SDS011;24692;45.642;13.806;2022-10-30T15:51:59;15.70;;;6.30;;
36443;SDS011;24692;45.642;13.806;2022-10-30T15:54:27;14.75;;;7.18;;
36443;SDS011;24692;45.642;13.806;2022-10-30T15:56:57;14.03;;;7.07;;
36443;SDS011;24692;45.642;13.806;2022-10-30T15:59:28;11.10;;;5.90;;
36443;SDS011;24692;45.642;13.806;2022-10-30T16:01:56;13.40;;;6.50;;
36443;SDS011;24692;45.642;13.806;2022-10-30T16:04:34;16.17;;;7.13;;
36443;SDS011;24692;45.642;13.806;2022-10-30T16:07:01;11.47;;;7.37;;
36443;SDS011;24692;45.642;13.806;2022-10-30T16:09:47;12.23;;;7.30;;
36443;SDS011;24692;45.642;13.806;2022-10-30T16:12:30;15.33;;;6.80;;
36443;SDS011;24692;45.642;13.806;2022-10-30T16:15:00;15.90;;;8.40;;
36443;SDS011;24692;45.642;13.806;2022-10-30T16:17:30;12.87;;;7.03;;
36443;SDS011;24692;45.642;13.806;2022-10-30T16:19:58;13.43;;;7.10;;
36443;SDS011;24692;45.642;13.806;2022-10-30T16:22:26;12.33;;;7.10;;
36443;SDS011;24692;45.642;13.806;2022-10-30T16:24:59;13.07;;;7.00;;
36443;SDS011;24692;45.642;13.806;2022-10-30T16:27:25;11.23;;;6.93;;
36443;SDS011;24692;45.642;13.806;2022-10-30T16:29:55;16.97;;;7.80;;
36443;SDS011;24692;45.642;13.806;2022-10-30T16:32:26;16.00;;;7.37;;
36443;SDS011;24692;45.642;13.806;2022-10-30T16:34:58;12.33;;;7.27;;
36443;SDS011;24692;45.642;13.806;2022-10-30T16:37:26;11.10;;;7.63;;
36443;SDS011;24692;45.642;13.806;2022-10-30T16:40:13;14.63;;;7.67;;
36443;SDS011;24692;45.642;13.806;2022-10-30T16:42:43;12.97;;;7.60;;
36443;SDS011;24692;45.642;13.806;2022-10-30T16:47:43;15.63;;;8.17;;
36443;SDS011;24692;45.642;13.806;2022-10-30T16:50:12;15.93;;;7.60;;
36443;SDS011;24692;45.642;13.806;2022-10-30T16:52:40;12.10;;;7.43;;
36443;SDS011;24692;45.642;13.806;2022-10-30T16:55:07;15.10;;;8.23;;
36443;SDS011;24692;45.642;13.806;2022-10-30T16:57:40;15.27;;;8.10;;
36443;SDS011;24692;45.642;13.806;2022-10-30T17:00:18;18.43;;;8.23;;
36443;SDS011;24692;45.642;13.806;2022-10-30T17:02:46;12.53;;;7.60;;
36443;SDS011;24692;45.642;13.806;2022-10-30T17:10:34;13.30;;;6.63;;
36443;SDS011;24692;45.642;13.806;2022-10-30T17:16:12;14.50;;;6.97;;
36443;SDS011;24692;45.642;13.806;2022-10-30T17:18:38;11.83;;;7.13;;
36443;SDS011;24692;45.642;13.806;2022-10-30T17:21:08;12.30;;;5.80;;
36443;SDS011;24692;45.642;13.806;2022-10-30T17:23:36;9.97;;;6.33;;
36443;SDS011;24692;45.642;13.806;2022-10-30T17:26:12;10.47;;;6.10;;
36443;SDS011;24692;45.642;13.806;2022-10-30T17:28:39;11.43;;;6.63;;
36443;SDS011;24692;45.642;13.806;2022-10-30T17:31:18;12.33;;;6.27;;